Cabo Tamar — CBCT — position and weather

sailwx.info

Track history (hours):
 
Tides and Currents Weather Stations Pressure Air Temp Water Temp Dewpoint Dewpoint Depression Visibility Wind Speed Wind Dir Waves Ship Positions

Cabo Tamar

Last reported at 2018-May-11 21:38 UTC. Time now 2018-Jun-24 18:48 UTC.
Position S 32°41' W 071°38'.
Warning: this ship's position is 43 days out of date.

Length 239 m; draft 7.9 m.

Type: Tanker. MMSI: 725010010.

Date/timePositionNaut miles runAvg speedWind from/ knotsBaromVisibWave heightAir tempDewpointWater temp
2018-May-11 21:38S 32°41' W 071°38'111.3
2018-May-11 21:30S 32°42' W 071°38'4 8.1
2018-May-11 21:00S 32°44' W 071°34'4 0.2
2018-May-10 20:56S 32°46' W 071°30'0 0.1
2018-May-10 20:30S 32°46' W 071°30'0 0.3
2018-May-10 20:00S 32°46' W 071°30'0 0.5
2018-May-10 19:30S 32°46' W 071°30'1 2.3
2018-May-10 19:00S 32°45' W 071°31'0 0.9
2018-May-10 18:30S 32°45' W 071°31'0 0.1
2018-May-10 18:00S 32°45' W 071°31'2 3.2
2018-May-10 17:31S 32°46' W 071°31'230.2
2018-May-10 17:27S 32°45' W 071°31'0 0.0
2018-May-10 17:00S 32°45' W 071°31'0 0.1
2018-May-10 16:24S 32°45' W 071°31'0 0.0
2018-May-10 16:00S 32°45' W 071°31'0 0.1
2018-May-10 15:03S 32°45' W 071°31'0 0.1
2018-May-10 15:00S 32°45' W 071°31'0 0.1
2018-May-10 14:30S 32°45' W 071°32'0 0.2
2018-May-10 13:10S 32°45' W 071°32'1 3.1
2018-May-10 12:55S 32°45' W 071°33'2 3.8
2018-May-10 12:30S 32°45' W 071°35'3 5.5
2018-May-10 12:00S 32°46' W 071°38'510.4
2018-May-10 11:30S 32°50' W 071°40'510.8
2018-May-10 11:00S 32°55' W 071°44'510.7
2018-May-10 10:30S 32°60' W 071°47'  
Track history (hours):
 
Tides and Currents Weather Stations Pressure Air Temp Water Temp Dewpoint Dewpoint Depression Visibility Wind Speed Wind Dir Waves Ship Positions

Cabo Tamar

Last reported at 2018-May-11 21:38 UTC. Time now 2018-Jun-24 18:48 UTC.
Position S 32°41' W 071°38'.
Warning: this ship's position is 43 days out of date.

Length 239 m; draft 7.9 m.

Type: Tanker. MMSI: 725010010.

Date/timePositionNaut miles runAvg speedWind from/ knotsBaromVisibWave heightAir tempDewpointWater temp
2018-May-11 21:38S 32°41' W 071°38'111.3
2018-May-11 21:30S 32°42' W 071°38'4 8.1
2018-May-11 21:00S 32°44' W 071°34'4 0.2
2018-May-10 20:56S 32°46' W 071°30'0 0.1
2018-May-10 20:30S 32°46' W 071°30'0 0.3
2018-May-10 20:00S 32°46' W 071°30'0 0.5
2018-May-10 19:30S 32°46' W 071°30'1 2.3
2018-May-10 19:00S 32°45' W 071°31'0 0.9
2018-May-10 18:30S 32°45' W 071°31'0 0.1
2018-May-10 18:00S 32°45' W 071°31'2 3.2
2018-May-10 17:31S 32°46' W 071°31'230.2
2018-May-10 17:27S 32°45' W 071°31'0 0.0
2018-May-10 17:00S 32°45' W 071°31'0 0.1
2018-May-10 16:24S 32°45' W 071°31'0 0.0
2018-May-10 16:00S 32°45' W 071°31'0 0.1
2018-May-10 15:03S 32°45' W 071°31'0 0.1
2018-May-10 15:00S 32°45' W 071°31'0 0.1
2018-May-10 14:30S 32°45' W 071°32'0 0.2
2018-May-10 13:10S 32°45' W 071°32'1 3.1
2018-May-10 12:55S 32°45' W 071°33'2 3.8
2018-May-10 12:30S 32°45' W 071°35'3 5.5
2018-May-10 12:00S 32°46' W 071°38'510.4
2018-May-10 11:30S 32°50' W 071°40'510.8
2018-May-10 11:00S 32°55' W 071°44'510.7
2018-May-10 10:30S 32°60' W 071°47'  

Dump ship's entire track history